South Brook, Canada
Current Conditions -  °F | °C
As of 10:00 PM on Saturday 25 Oct 2014 (Local Time) from CYDF Reporting Station
Light Rain Light Rain  
Wind Chill: 30°   Ceiling: 1600
Heat Index: 39°   Visibility: 4mi
Dew Point: 37°   Wind: 16mph
Humidity: 93%   Direction: 40°NE
Pressure: 29.6"   Gusts: NA
Location:  49.02°N, 57.62°W
Report Text: CYDF 260000Z 04014KT 4SM -RADZ BR FEW007 OVC016 04/03 A2960 RMK SF2SC6 SLP026
Loading
Personal Weather Stations






























Interactive Weather Map
Tropical Storm Tracking
New forecast layout! Learn more

10-Day Weather Forecast

Advertisements
Track Severe Weather on mobile